createdAt,value
2023-01-20T00:00:57.963Z,7.1
2023-01-20T00:07:17.925Z,7.1
2023-01-20T00:13:41.141Z,16.5
2023-01-20T00:20:00.953Z,16.5
2023-01-20T00:26:23.965Z,8.7
2023-01-20T00:32:43.918Z,8.7
2023-01-20T00:39:07.087Z,5.1
2023-01-20T00:45:26.913Z,5.1
2023-01-20T00:51:50.092Z,8.1
2023-01-20T00:58:10.104Z,8.1
2023-01-20T01:04:32.943Z,4.1
2023-01-20T01:10:52.985Z,4.1
2023-01-20T01:17:15.990Z,11.5
2023-01-20T01:23:35.915Z,11.5
2023-01-20T01:29:58.975Z,2.5
2023-01-20T01:36:18.952Z,2.5
2023-01-20T01:42:42.931Z,5.5
2023-01-20T01:49:02.007Z,5.5
2023-01-20T01:55:25.126Z,6.8
2023-01-20T02:01:45.143Z,6.8
2023-01-20T02:08:07.973Z,3.6
2023-01-20T02:14:27.927Z,3.6
2023-01-20T02:20:50.934Z,4
2023-01-20T02:27:11.052Z,4
2023-01-20T02:33:33.960Z,9.4
2023-01-20T02:39:53.909Z,9.4
2023-01-20T02:46:17.079Z,8.9
2023-01-20T02:52:37.072Z,8.9
2023-01-20T02:59:00.137Z,9.1
2023-01-20T03:05:20.138Z,9.1
2023-01-20T03:11:43.075Z,5.1
2023-01-20T03:18:02.952Z,5.1
2023-01-20T03:24:25.973Z,10.2
2023-01-20T03:30:46.109Z,10.2
2023-01-20T03:37:08.949Z,5.9
2023-01-20T03:43:28.890Z,5.9
2023-01-20T03:49:52.179Z,5.5
2023-01-20T03:56:12.019Z,5.5
2023-01-20T04:02:35.019Z,5.4
2023-01-20T04:26:16.926Z,8.9
2023-01-20T04:32:36.959Z,8.9
2023-01-20T04:39:00.039Z,1.6
2023-01-20T04:45:20.064Z,1.6
2023-01-20T04:51:43.006Z,7.2
2023-01-20T04:58:02.903Z,7.2
2023-01-20T05:04:25.964Z,5.3
2023-01-20T05:10:45.900Z,5.3
2023-01-20T05:17:08.920Z,8.1
2023-01-20T05:23:29.009Z,8.1
2023-01-20T05:29:51.885Z,11.5
2023-01-20T05:36:11.979Z,11.5
2023-01-20T05:42:34.915Z,12.2
2023-01-20T05:48:54.888Z,12.2
2023-01-20T05:55:17.908Z,3.7
2023-01-20T06:01:38.048Z,3.7
2023-01-20T06:08:01.158Z,7.8
2023-01-20T06:14:20.913Z,7.8
2023-01-20T06:20:43.977Z,8.5
2023-01-20T06:27:03.989Z,8.5
2023-01-20T06:33:27.056Z,8.6
2023-01-20T06:39:47.056Z,8.6
2023-01-20T06:46:10.027Z,6
2023-01-20T06:52:29.962Z,6
2023-01-20T06:58:52.981Z,3.8
2023-01-20T07:05:13.098Z,3.8
2023-01-20T07:11:36.062Z,2.3
2023-01-20T07:17:55.970Z,2.3
2023-01-20T07:24:18.917Z,5.7
2023-01-20T07:30:39.123Z,5.7
2023-01-20T07:37:02.006Z,10.5
2023-01-20T07:43:22.091Z,10.5
2023-01-20T07:49:45.023Z,9.3
2023-01-20T07:56:05.090Z,9.3
2023-01-20T08:02:28.031Z,4.4
2023-01-20T08:08:47.939Z,4.4
2023-01-20T08:15:11.176Z,3.9
2023-01-20T08:21:30.982Z,3.9
2023-01-20T08:27:54.063Z,6.1
2023-01-20T08:34:14.113Z,6.1
2023-01-20T08:40:37.001Z,10.1
2023-01-20T08:46:57.060Z,10.1
2023-01-20T08:53:20.094Z,4
2023-01-20T08:59:40.016Z,4
2023-01-20T09:06:03.023Z,8.3
2023-01-20T09:22:45.594Z,5.3
2023-01-20T09:29:08.463Z,9.9
2023-01-20T09:35:27.951Z,9.9
2023-01-20T09:41:51.198Z,9.9
2023-01-20T09:48:10.900Z,9.9
2023-01-20T09:54:34.071Z,9.1
2023-01-20T10:00:54.068Z,9.1
2023-01-20T10:07:17.059Z,4.8
2023-01-20T10:13:37.043Z,4.8
2023-01-20T10:19:59.944Z,5.5
2023-01-20T10:26:20.060Z,5.5
2023-01-20T10:32:42.916Z,4
2023-01-20T10:39:03.109Z,4
2023-01-20T10:45:26.044Z,6.1
2023-01-20T10:51:45.988Z,6.1
2023-01-20T10:58:08.979Z,3.3
2023-01-20T11:04:28.998Z,3.3
2023-01-20T11:10:51.961Z,3
2023-01-20T11:17:12.180Z,3
2023-01-20T11:23:34.929Z,5.2
2023-01-20T11:29:54.998Z,5.2
2023-01-20T11:36:18.405Z,4.3
2023-01-20T11:42:38.388Z,4.3
2023-01-20T11:49:01.283Z,2.1
2023-01-20T11:55:20.933Z,2.1
2023-01-20T12:01:44.144Z,9.8
2023-01-20T12:08:03.963Z,9.8
2023-01-20T12:14:26.947Z,7.4
2023-01-20T12:20:54.734Z,7.4
2023-01-20T12:27:09.991Z,8.6
2023-01-20T12:33:30.182Z,8.6
2023-01-20T12:39:53.046Z,7.9
2023-01-20T12:46:13.073Z,7.9
2023-01-20T12:52:36.084Z,10.2
2023-01-20T12:58:56.333Z,10.2
2023-01-20T13:05:19.380Z,14.9
2023-01-20T13:11:39.006Z,14.9
2023-01-20T13:18:01.964Z,8.5
2023-01-20T13:24:21.915Z,8.5
2023-01-20T13:30:45.068Z,6
2023-01-20T13:37:05.025Z,6
2023-01-20T13:43:27.940Z,7.4
2023-01-20T13:49:48.048Z,7.4
2023-01-20T13:56:10.946Z,9.7
2023-01-20T14:02:31.216Z,9.7
2023-01-20T14:08:53.924Z,10.6
2023-01-20T14:32:35.929Z,9.3
2023-01-20T14:38:57.952Z,9.3
2023-01-20T14:45:18.933Z,9.1
2023-01-20T14:51:38.921Z,9.1
2023-01-20T14:58:01.936Z,9.7
2023-01-20T15:04:21.924Z,9.7
2023-01-20T15:10:45.363Z,10
2023-01-20T15:17:05.084Z,10
2023-01-20T15:23:27.942Z,11.8
2023-01-20T15:29:48.022Z,11.8
2023-01-20T15:36:12.234Z,13.4
2023-01-20T15:42:31.914Z,13.4
2023-01-20T15:48:55.197Z,15.9
2023-01-20T15:55:15.027Z,15.9
2023-01-20T16:01:38.007Z,17.6
2023-01-20T16:07:57.958Z,17.6
2023-01-20T16:14:21.010Z,12.8
2023-01-20T16:20:40.953Z,12.8
2023-01-20T16:27:03.963Z,13.4
2023-01-20T16:33:24.166Z,13.4
2023-01-20T16:39:47.071Z,11.8
2023-01-20T16:46:07.048Z,11.8
2023-01-20T16:52:29.959Z,9.2
2023-01-20T16:58:50.072Z,9.2
2023-01-20T17:05:13.060Z,8.5
2023-01-20T17:11:32.952Z,8.5
2023-01-20T17:17:56.175Z,5.6
2023-01-20T17:24:16.391Z,5.6
2023-01-20T17:30:39.127Z,7.1
2023-01-20T17:36:59.064Z,7.1
2023-01-20T17:43:21.942Z,8.6
2023-01-20T17:49:42.053Z,8.6
2023-01-20T17:56:12.109Z,7.2
2023-01-20T18:02:25.325Z,7.2
2023-01-20T18:08:47.943Z,10.7
2023-01-20T18:15:08.213Z,10.7
2023-01-20T18:21:31.046Z,7.4
2023-01-20T18:27:50.895Z,7.4
2023-01-20T18:34:14.000Z,5.7
2023-01-20T18:40:34.076Z,5.7
2023-01-20T18:46:56.969Z,10.1
2023-01-20T18:53:17.190Z,10.1
2023-01-20T18:59:40.105Z,7.5
2023-01-20T19:06:00.042Z,7.5
2023-01-20T19:28:31.022Z,26.6
2023-01-20T19:34:53.895Z,26.6
2023-01-20T19:41:13.932Z,26.6
2023-01-20T19:47:36.954Z,17.3
2023-01-20T19:53:57.212Z,17.3
2023-01-20T20:00:19.965Z,17.5
2023-01-20T20:06:40.469Z,17.5
2023-01-20T20:13:03.096Z,16.5
2023-01-20T20:19:23.018Z,16.5
2023-01-20T20:25:45.954Z,53.1
2023-01-20T20:32:06.059Z,53.1
2023-01-20T20:38:28.988Z,19.7
2023-01-20T20:44:48.944Z,19.7
2023-01-20T20:51:12.070Z,19.1
2023-01-20T20:57:31.995Z,19.1
2023-01-20T21:03:55.133Z,19.8
2023-01-20T21:10:15.366Z,19.8
2023-01-20T21:16:38.062Z,9
2023-01-20T21:22:58.085Z,9
2023-01-20T21:29:21.001Z,13.7
2023-01-20T21:35:41.080Z,13.7
2023-01-20T21:42:03.945Z,22.6
2023-01-20T21:48:23.925Z,22.6
2023-01-20T21:54:47.351Z,14.3
2023-01-20T22:01:06.979Z,14.3
2023-01-20T22:07:30.055Z,26.4
2023-01-20T22:13:49.934Z,26.4
2023-01-20T22:20:13.056Z,17.5
2023-01-20T22:26:33.007Z,17.5
2023-01-20T22:32:55.973Z,23.1
2023-01-20T22:39:15.977Z,23.1
2023-01-20T22:45:38.922Z,9.8
2023-01-20T22:51:58.917Z,9.8
2023-01-20T22:58:21.987Z,33.2
2023-01-20T23:22:36.919Z,37.9
2023-01-20T23:28:56.934Z,37.9
2023-01-20T23:35:20.037Z,37.9
2023-01-20T23:41:39.977Z,37.9
2023-01-20T23:48:03.029Z,11.6
2023-01-20T23:54:22.929Z,11.6
